createdAt,value
2023-02-23T00:01:37.783Z,85
2023-02-23T00:03:42.769Z,85
2023-02-23T00:05:37.786Z,85
2023-02-23T00:07:37.780Z,84
2023-02-23T00:11:37.802Z,85
2023-02-23T00:13:37.708Z,85
2023-02-23T00:17:40.675Z,84
2023-02-23T00:19:37.759Z,85
2023-02-23T00:21:43.850Z,85
2023-02-23T00:23:37.044Z,85
2023-02-23T00:29:38.085Z,85
2023-02-23T00:31:37.795Z,85
2023-02-23T00:33:43.622Z,84
2023-02-23T00:35:37.680Z,84
2023-02-23T00:37:37.808Z,84
2023-02-23T00:41:37.793Z,84
2023-02-23T00:43:44.280Z,84
2023-02-23T00:45:43.537Z,84
2023-02-23T00:47:37.720Z,84
2023-02-23T00:49:37.781Z,84
2023-02-23T00:51:42.672Z,84
2023-02-23T00:53:40.965Z,84
2023-02-23T00:55:40.744Z,84
2023-02-23T00:59:37.672Z,84
2023-02-23T01:01:37.927Z,84
2023-02-23T01:05:44.421Z,84
2023-02-23T01:07:37.759Z,84
2023-02-23T01:11:37.784Z,84
2023-02-23T01:13:42.635Z,84
2023-02-23T01:17:42.478Z,84
2023-02-23T01:19:37.913Z,84
2023-02-23T01:21:44.146Z,84
2023-02-23T01:23:37.692Z,84
2023-02-23T01:25:37.733Z,84
2023-02-23T01:29:37.724Z,84
2023-02-23T01:31:41.203Z,84
2023-02-23T01:35:37.712Z,84
2023-02-23T01:37:40.958Z,84
2023-02-23T01:39:43.388Z,84
2023-02-23T01:41:40.979Z,84
2023-02-23T01:43:37.758Z,84
2023-02-23T01:45:42.993Z,84
2023-02-23T01:47:37.739Z,84
2023-02-23T01:49:41.038Z,84
2023-02-23T01:53:37.765Z,84
2023-02-23T01:55:37.780Z,84
2023-02-23T01:59:37.715Z,84
2023-02-23T02:01:40.463Z,84
2023-02-23T02:03:43.048Z,84
2023-02-23T02:05:40.860Z,84
2023-02-23T02:07:40.987Z,84
2023-02-23T02:11:37.794Z,84
2023-02-23T02:13:40.508Z,84
2023-02-23T02:17:37.775Z,84
2023-02-23T02:23:37.265Z,84
2023-02-23T02:29:39.355Z,84
2023-02-23T02:31:37.869Z,84
2023-02-23T02:33:41.044Z,84
2023-02-23T02:35:42.592Z,84
2023-02-23T02:37:38.030Z,84
2023-02-23T02:41:37.682Z,84
2023-02-23T02:43:39.384Z,84
2023-02-23T02:45:43.504Z,84
2023-02-23T02:47:37.793Z,84
2023-02-23T02:49:41.009Z,84
2023-02-23T02:51:42.456Z,84
2023-02-23T02:53:39.065Z,84
2023-02-23T02:55:40.358Z,84
2023-02-23T02:59:37.884Z,84
2023-02-23T03:01:37.839Z,83
2023-02-23T03:03:42.108Z,83
2023-02-23T03:05:39.881Z,83
2023-02-23T03:07:39.391Z,83
2023-02-23T03:09:43.589Z,83
2023-02-23T03:11:37.789Z,83
2023-02-23T03:13:37.840Z,84
2023-02-23T03:17:38.540Z,83
2023-02-23T03:19:42.175Z,83
2023-02-23T03:23:44.345Z,83
2023-02-23T03:25:39.045Z,83
2023-02-23T03:29:42.720Z,84
2023-02-23T03:31:37.815Z,83
2023-02-23T03:33:42.553Z,84
2023-02-23T03:35:38.551Z,83
2023-02-23T03:37:41.021Z,83
2023-02-23T03:41:37.754Z,83
2023-02-23T03:43:37.744Z,83
2023-02-23T03:45:43.361Z,84
2023-02-23T03:47:34.324Z,84
2023-02-23T03:49:37.726Z,85
2023-02-23T03:51:43.493Z,84
2023-02-23T03:53:44.522Z,84
2023-02-23T03:55:37.708Z,85
2023-02-23T03:57:43.484Z,84
2023-02-23T03:59:37.697Z,84
2023-02-23T04:01:39.395Z,84
2023-02-23T04:03:42.919Z,85
2023-02-23T04:05:37.522Z,85
2023-02-23T04:07:37.780Z,85
2023-02-23T04:11:37.133Z,85
2023-02-23T04:13:39.191Z,85
2023-02-23T04:15:41.985Z,85
2023-02-23T04:17:40.839Z,85
2023-02-23T04:19:44.465Z,85
2023-02-23T04:23:39.395Z,85
2023-02-23T04:25:37.760Z,84
2023-02-23T04:31:39.520Z,85
2023-02-23T04:35:40.950Z,84
2023-02-23T04:37:40.785Z,85
2023-02-23T04:41:37.761Z,85
2023-02-23T04:43:38.617Z,84
2023-02-23T04:47:37.150Z,84
2023-02-23T04:49:42.564Z,84
2023-02-23T04:51:43.452Z,85
2023-02-23T04:53:37.751Z,85
2023-02-23T04:55:38.750Z,85
2023-02-23T04:59:37.705Z,85
2023-02-23T05:01:37.925Z,85
2023-02-23T05:05:37.733Z,85
2023-02-23T05:07:37.722Z,85
2023-02-23T05:09:41.361Z,85
2023-02-23T05:11:39.631Z,84
2023-02-23T05:13:37.744Z,84
2023-02-23T05:15:43.509Z,84
2023-02-23T05:17:37.726Z,84
2023-02-23T05:19:36.133Z,84
2023-02-23T05:23:38.046Z,84
2023-02-23T05:25:37.758Z,84
2023-02-23T05:27:40.011Z,84
2023-02-23T05:29:40.749Z,85
2023-02-23T05:31:41.335Z,85
2023-02-23T05:33:41.581Z,85
2023-02-23T05:35:37.683Z,85
2023-02-23T05:37:37.692Z,85
2023-02-23T05:41:37.714Z,85
2023-02-23T05:43:37.757Z,85
2023-02-23T05:47:37.835Z,85
2023-02-23T05:49:39.909Z,85
2023-02-23T05:53:37.748Z,85
2023-02-23T05:55:36.208Z,85
2023-02-23T06:01:41.237Z,85
2023-02-23T06:05:37.348Z,85
2023-02-23T06:07:37.758Z,85
2023-02-23T06:11:40.959Z,85
2023-02-23T06:13:37.828Z,85
2023-02-23T06:15:44.624Z,85
2023-02-23T06:17:37.717Z,85
2023-02-23T06:19:37.784Z,85
2023-02-23T06:23:37.339Z,85
2023-02-23T06:25:41.422Z,85
2023-02-23T06:29:40.732Z,85
2023-02-23T06:31:41.157Z,85
2023-02-23T06:35:37.729Z,85
2023-02-23T06:37:34.926Z,85
2023-02-23T06:41:40.883Z,85
2023-02-23T06:43:38.643Z,84
2023-02-23T06:49:40.946Z,85
2023-02-23T06:51:43.005Z,85
2023-02-23T06:53:37.802Z,85
2023-02-23T06:55:37.822Z,85
2023-02-23T06:59:42.498Z,85
2023-02-23T07:01:43.938Z,85
2023-02-23T07:05:38.062Z,85
2023-02-23T07:07:37.803Z,85
2023-02-23T07:09:43.114Z,85
2023-02-23T07:11:37.695Z,85
2023-02-23T07:13:37.751Z,85
2023-02-23T07:17:37.828Z,85
2023-02-23T07:19:37.752Z,84
2023-02-23T07:21:43.002Z,84
2023-02-23T07:23:40.738Z,84
2023-02-23T07:25:37.838Z,84
2023-02-23T07:29:38.101Z,84
2023-02-23T07:31:41.088Z,85
2023-02-23T07:33:43.168Z,85
2023-02-23T07:35:37.737Z,84
2023-02-23T07:37:37.812Z,84
2023-02-23T07:41:38.067Z,85
2023-02-23T07:43:37.823Z,84
2023-02-23T07:45:46.189Z,84
2023-02-23T07:47:37.783Z,85
2023-02-23T07:49:37.601Z,85
2023-02-23T07:53:41.530Z,85
2023-02-23T07:55:37.763Z,85
2023-02-23T07:59:40.885Z,84
2023-02-23T08:01:41.956Z,84
2023-02-23T08:03:42.684Z,84
2023-02-23T08:05:39.428Z,84
2023-02-23T08:07:41.037Z,84
2023-02-23T08:09:42.721Z,85
2023-02-23T08:11:41.454Z,84
2023-02-23T08:13:39.450Z,84
2023-02-23T08:15:43.048Z,84
2023-02-23T08:17:37.781Z,84
2023-02-23T08:19:39.427Z,84
2023-02-23T08:21:44.067Z,84
2023-02-23T08:23:36.258Z,84
2023-02-23T08:25:37.736Z,84
2023-02-23T08:27:42.707Z,84
2023-02-23T08:29:37.768Z,84
2023-02-23T08:31:38.058Z,84
2023-02-23T08:35:39.570Z,84
2023-02-23T08:39:43.664Z,84
2023-02-23T08:41:37.790Z,84
2023-02-23T08:43:37.835Z,83
2023-02-23T08:45:43.536Z,83
2023-02-23T08:47:37.837Z,83
2023-02-23T08:49:37.780Z,83
2023-02-23T08:51:40.823Z,83
2023-02-23T08:53:37.862Z,83
2023-02-23T08:55:34.986Z,82
2023-02-23T08:57:44.674Z,83
2023-02-23T08:59:37.883Z,83
2023-02-23T09:01:45.010Z,83
2023-02-23T09:05:37.876Z,82
2023-02-23T09:07:39.675Z,82
2023-02-23T09:09:37.895Z,83
2023-02-23T09:11:39.092Z,83
2023-02-23T09:13:38.558Z,84
2023-02-23T09:15:41.702Z,84
2023-02-23T09:17:37.956Z,84
2023-02-23T09:19:37.904Z,84
2023-02-23T09:23:41.259Z,85
2023-02-23T09:25:37.885Z,84
2023-02-23T09:29:37.885Z,85
2023-02-23T09:31:40.051Z,84
2023-02-23T09:33:40.977Z,85
2023-02-23T09:35:40.066Z,85
2023-02-23T09:37:42.031Z,85
2023-02-23T09:39:44.275Z,85
2023-02-23T09:41:38.015Z,85
2023-02-23T09:43:41.004Z,85
2023-02-23T09:45:37.962Z,84
2023-02-23T09:47:37.986Z,84
2023-02-23T09:53:37.972Z,85
2023-02-23T09:55:43.615Z,84
2023-02-23T09:57:37.999Z,84
2023-02-23T09:59:38.000Z,85
2023-02-23T10:01:37.963Z,85
2023-02-23T10:03:38.757Z,85
2023-02-23T10:05:38.083Z,85
2023-02-23T10:07:41.225Z,84
2023-02-23T10:09:38.038Z,84
2023-02-23T10:11:39.505Z,84
2023-02-23T10:13:37.982Z,84
2023-02-23T10:15:38.433Z,84
2023-02-23T10:17:38.058Z,84
2023-02-23T10:19:41.384Z,84
2023-02-23T10:21:43.929Z,84
2023-02-23T10:23:38.355Z,84
2023-02-23T10:25:37.894Z,84
2023-02-23T10:27:38.097Z,84
2023-02-23T10:29:42.043Z,84
2023-02-23T10:31:38.370Z,84
2023-02-23T10:33:43.567Z,84
2023-02-23T10:35:38.157Z,84
2023-02-23T10:37:37.702Z,85
2023-02-23T10:39:45.064Z,85
2023-02-23T10:41:38.599Z,85
2023-02-23T10:43:38.188Z,85
2023-02-23T10:45:38.165Z,85
2023-02-23T10:47:38.098Z,85
2023-02-23T10:49:41.954Z,85
2023-02-23T10:51:38.182Z,84
2023-02-23T10:53:38.211Z,85
2023-02-23T10:55:38.388Z,84
2023-02-23T10:57:44.070Z,84
2023-02-23T10:59:38.495Z,84
2023-02-23T11:01:46.342Z,84
2023-02-23T11:03:37.820Z,83
2023-02-23T11:05:41.307Z,83
2023-02-23T11:07:38.231Z,82
2023-02-23T11:09:46.885Z,82
2023-02-23T11:11:38.245Z,82
2023-02-23T11:13:38.280Z,82
2023-02-23T11:17:38.213Z,82
2023-02-23T11:19:38.345Z,81
2023-02-23T11:21:37.982Z,81
2023-02-23T11:23:38.432Z,81
2023-02-23T11:25:38.648Z,81
2023-02-23T11:27:45.050Z,81
2023-02-23T11:29:38.448Z,81
2023-02-23T11:31:39.352Z,81
2023-02-23T11:33:38.092Z,81
2023-02-23T11:35:44.761Z,81
2023-02-23T11:37:38.420Z,81
2023-02-23T11:39:38.675Z,81
2023-02-23T11:41:41.819Z,81
2023-02-23T11:43:38.008Z,81
2023-02-23T11:45:38.465Z,81
2023-02-23T11:49:38.531Z,82
2023-02-23T11:51:38.224Z,82
2023-02-23T11:53:38.570Z,81
2023-02-23T11:55:41.672Z,81
2023-02-23T11:57:37.171Z,81
2023-02-23T11:59:38.923Z,81
2023-02-23T12:01:45.470Z,80
2023-02-23T12:03:38.477Z,80
2023-02-23T12:05:38.605Z,80
2023-02-23T12:07:38.834Z,80
2023-02-23T12:09:38.664Z,80
2023-02-23T12:11:41.972Z,80
2023-02-23T12:13:41.296Z,80
2023-02-23T12:15:42.043Z,80
2023-02-23T12:17:38.226Z,80
2023-02-23T12:19:38.785Z,80
2023-02-23T12:21:38.711Z,80
2023-02-23T12:23:42.496Z,80
2023-02-23T12:25:38.793Z,80
2023-02-23T12:27:38.831Z,80
2023-02-23T12:29:41.946Z,80
2023-02-23T12:31:44.950Z,80
2023-02-23T12:33:38.864Z,79
2023-02-23T12:35:45.421Z,79
2023-02-23T12:37:42.694Z,79
2023-02-23T12:39:38.991Z,79
2023-02-23T12:41:39.313Z,79
2023-02-23T12:43:42.030Z,79
2023-02-23T12:45:37.977Z,78
2023-02-23T12:47:38.948Z,77
2023-02-23T12:49:36.932Z,78
2023-02-23T12:51:45.580Z,78
2023-02-23T12:53:38.490Z,79
2023-02-23T12:55:38.919Z,79
2023-02-23T12:57:39.094Z,78
2023-02-23T12:59:42.606Z,78
2023-02-23T13:01:39.042Z,77
2023-02-23T13:05:37.095Z,78
2023-02-23T13:07:39.098Z,78
2023-02-23T13:09:39.122Z,78
2023-02-23T13:13:37.331Z,79
2023-02-23T13:15:42.053Z,78
2023-02-23T13:17:42.365Z,79
2023-02-23T13:19:38.897Z,79
2023-02-23T13:21:42.042Z,78
2023-02-23T13:23:43.524Z,78
2023-02-23T13:25:38.985Z,79
2023-02-23T13:27:38.813Z,78
2023-02-23T13:29:42.675Z,79
2023-02-23T13:31:39.143Z,79
2023-02-23T13:35:45.874Z,78
2023-02-23T13:37:42.710Z,79
2023-02-23T13:39:39.418Z,79
2023-02-23T13:41:38.951Z,79
2023-02-23T13:43:39.215Z,79
2023-02-23T13:45:39.319Z,79
2023-02-23T13:47:39.189Z,80
2023-02-23T13:49:38.784Z,80
2023-02-23T13:51:39.360Z,79
2023-02-23T13:53:39.733Z,80
2023-02-23T13:57:39.392Z,79
2023-02-23T13:59:39.328Z,80
2023-02-23T14:01:39.412Z,80
2023-02-23T14:05:39.225Z,80
2023-02-23T14:07:39.609Z,80
2023-02-23T14:09:39.154Z,80
2023-02-23T14:11:39.285Z,80
2023-02-23T14:13:39.258Z,80
2023-02-23T14:17:38.794Z,80
2023-02-23T14:19:39.288Z,80
2023-02-23T14:21:37.296Z,80
2023-02-23T14:23:40.899Z,80
2023-02-23T14:25:39.262Z,80
2023-02-23T14:27:41.652Z,80
2023-02-23T14:29:37.258Z,80
2023-02-23T14:31:39.405Z,81
2023-02-23T14:33:39.258Z,81
2023-02-23T14:35:39.004Z,81
2023-02-23T14:37:38.818Z,81
2023-02-23T14:39:39.763Z,81
2023-02-23T14:41:44.716Z,81
2023-02-23T14:43:39.218Z,81
2023-02-23T14:45:40.945Z,81
2023-02-23T14:47:39.206Z,81
2023-02-23T14:49:39.298Z,81
2023-02-23T14:51:39.312Z,81
2023-02-23T14:53:37.241Z,81
2023-02-23T14:55:39.226Z,81
2023-02-23T14:57:38.799Z,81
2023-02-23T14:59:39.297Z,81
2023-02-23T15:01:39.507Z,81
2023-02-23T15:03:39.273Z,81
2023-02-23T15:05:40.889Z,81
2023-02-23T15:09:39.393Z,81
2023-02-23T15:11:40.448Z,81
2023-02-23T15:13:42.496Z,81
2023-02-23T15:15:39.288Z,81
2023-02-23T15:17:39.075Z,81
2023-02-23T15:19:39.271Z,82
2023-02-23T15:21:45.308Z,82
2023-02-23T15:23:38.974Z,82
2023-02-23T15:25:38.986Z,82
2023-02-23T15:27:42.912Z,82
2023-02-23T15:29:42.386Z,82
2023-02-23T15:31:39.786Z,82
2023-02-23T15:33:46.077Z,83
2023-02-23T15:35:39.278Z,82
2023-02-23T15:37:39.266Z,82
2023-02-23T15:41:42.488Z,82
2023-02-23T15:43:38.817Z,82
2023-02-23T15:45:42.371Z,83
2023-02-23T15:47:38.977Z,83
2023-02-23T15:49:43.014Z,83
2023-02-23T15:51:39.295Z,83
2023-02-23T15:53:39.559Z,83
2023-02-23T15:55:39.406Z,83
2023-02-23T15:59:38.997Z,83
2023-02-23T16:01:39.259Z,83
2023-02-23T16:05:46.431Z,83
2023-02-23T16:07:35.979Z,83
2023-02-23T16:09:39.932Z,83
2023-02-23T16:11:45.782Z,83
2023-02-23T16:13:39.207Z,83
2023-02-23T16:15:39.360Z,83
2023-02-23T16:17:38.571Z,83
2023-02-23T16:19:40.334Z,83
2023-02-23T16:21:39.243Z,84
2023-02-23T16:23:37.345Z,84
2023-02-23T16:25:39.287Z,83
2023-02-23T16:29:38.927Z,84
2023-02-23T16:31:43.432Z,84
2023-02-23T16:35:39.262Z,84
2023-02-23T16:37:42.515Z,84
2023-02-23T16:41:39.198Z,84
2023-02-23T16:43:39.539Z,84
2023-02-23T16:45:46.461Z,84
2023-02-23T16:49:38.857Z,84
2023-02-23T16:51:42.183Z,84
2023-02-23T16:53:45.642Z,84
2023-02-23T16:55:39.323Z,84
2023-02-23T16:57:37.268Z,84
2023-02-23T17:01:39.263Z,84
2023-02-23T17:05:37.248Z,84
2023-02-23T17:11:52.342Z,84
2023-02-23T17:13:52.202Z,84
2023-02-23T17:17:51.601Z,84
2023-02-23T17:21:51.409Z,84
2023-02-23T17:23:51.347Z,84
2023-02-23T17:25:51.730Z,84
2023-02-23T17:27:53.180Z,84
2023-02-23T17:29:49.654Z,84
2023-02-23T17:31:53.053Z,84
2023-02-23T17:33:53.194Z,84
2023-02-23T17:35:49.350Z,84
2023-02-23T17:37:52.260Z,84
2023-02-23T17:41:50.790Z,84
2023-02-23T17:43:51.696Z,85
2023-02-23T17:45:53.486Z,85
2023-02-23T17:47:50.582Z,85
2023-02-23T17:49:52.537Z,85
2023-02-23T17:51:53.210Z,85
2023-02-23T17:53:49.359Z,85
2023-02-23T17:55:49.831Z,85
2023-02-23T17:59:52.942Z,85
2023-02-23T18:01:52.528Z,85
2023-02-23T18:03:53.217Z,85
2023-02-23T18:05:51.059Z,85
2023-02-23T18:07:49.133Z,85
2023-02-23T18:09:53.354Z,85
2023-02-23T18:11:51.176Z,85
2023-02-23T18:13:53.911Z,85
2023-02-23T18:17:52.623Z,85
2023-02-23T18:19:49.855Z,86
2023-02-23T18:23:52.798Z,86
2023-02-23T18:25:49.344Z,86
2023-02-23T18:27:53.375Z,86
2023-02-23T18:29:49.392Z,86
2023-02-23T18:31:52.800Z,86
2023-02-23T18:35:52.099Z,87
2023-02-23T18:37:53.221Z,87
2023-02-23T18:41:50.736Z,86
2023-02-23T18:43:52.766Z,86
2023-02-23T18:45:53.374Z,87
2023-02-23T18:47:50.463Z,87
2023-02-23T18:49:51.720Z,87
2023-02-23T18:53:50.626Z,87
2023-02-23T18:55:49.620Z,87
2023-02-23T18:57:53.422Z,87
2023-02-23T18:59:50.795Z,87
2023-02-23T19:01:51.760Z,87
2023-02-23T19:03:53.294Z,86
2023-02-23T19:05:49.757Z,87
2023-02-23T19:07:49.441Z,86
2023-02-23T19:09:53.488Z,87
2023-02-23T19:11:49.652Z,86
2023-02-23T19:13:49.399Z,86
2023-02-23T19:17:50.316Z,86
2023-02-23T19:19:52.645Z,86
2023-02-23T19:21:53.562Z,86
2023-02-23T19:23:52.643Z,86
2023-02-23T19:25:52.829Z,86
2023-02-23T19:29:52.223Z,86
2023-02-23T19:31:50.903Z,86
2023-02-23T19:33:53.148Z,86
2023-02-23T19:35:52.228Z,86
2023-02-23T19:37:52.679Z,86
2023-02-23T19:41:52.392Z,86
2023-02-23T19:43:52.635Z,87
2023-02-23T19:45:52.802Z,87
2023-02-23T19:47:52.913Z,87
2023-02-23T19:49:52.690Z,87
2023-02-23T19:53:50.752Z,86
2023-02-23T19:55:52.404Z,86
2023-02-23T19:57:53.332Z,86
2023-02-23T19:59:50.486Z,86
2023-02-23T20:01:50.670Z,86
2023-02-23T20:03:52.966Z,86
2023-02-23T20:05:52.412Z,86
2023-02-23T20:07:50.593Z,86
2023-02-23T20:11:53.039Z,86
2023-02-23T20:13:49.834Z,87
2023-02-23T20:17:49.377Z,87
2023-02-23T20:19:49.908Z,87
2023-02-23T20:21:52.378Z,87
2023-02-23T20:23:52.378Z,87
2023-02-23T20:25:52.850Z,87
2023-02-23T20:27:53.131Z,87
2023-02-23T20:29:52.593Z,87
2023-02-23T20:31:49.598Z,87
2023-02-23T20:33:53.052Z,87
2023-02-23T20:35:55.752Z,87
2023-02-23T20:37:52.548Z,87
2023-02-23T20:39:53.171Z,87
2023-02-23T20:41:50.667Z,87
2023-02-23T20:43:52.977Z,87
2023-02-23T20:47:52.670Z,87
2023-02-23T20:49:49.351Z,87
2023-02-23T20:53:51.579Z,87
2023-02-23T20:55:55.622Z,87
2023-02-23T20:57:53.540Z,87
2023-02-23T20:59:50.235Z,87
2023-02-23T21:01:52.080Z,87
2023-02-23T21:07:49.888Z,87
2023-02-23T21:11:51.673Z,87
2023-02-23T21:13:47.930Z,87
2023-02-23T21:17:49.460Z,87
2023-02-23T21:21:53.936Z,87
2023-02-23T21:23:51.605Z,87
2023-02-23T21:25:51.230Z,87
2023-02-23T21:29:52.690Z,87
2023-02-23T21:31:49.550Z,87
2023-02-23T21:35:49.776Z,87
2023-02-23T21:37:49.041Z,87
2023-02-23T21:41:51.099Z,87
2023-02-23T21:43:52.142Z,87
2023-02-23T21:47:49.381Z,87
2023-02-23T21:49:51.322Z,87
2023-02-23T21:51:53.493Z,87
2023-02-23T21:53:52.552Z,87
2023-02-23T21:55:49.499Z,87
2023-02-23T21:57:53.205Z,87
2023-02-23T21:59:53.150Z,88
2023-02-23T22:01:52.698Z,88
2023-02-23T22:03:52.671Z,88
2023-02-23T22:05:49.501Z,88
2023-02-23T22:07:50.225Z,88
2023-02-23T22:09:53.181Z,88
2023-02-23T22:11:50.508Z,88
2023-02-23T22:15:53.179Z,87
2023-02-23T22:17:52.682Z,88
2023-02-23T22:19:49.865Z,88
2023-02-23T22:21:53.337Z,88
2023-02-23T22:23:52.150Z,88
2023-02-23T22:25:52.742Z,88
2023-02-23T22:29:51.286Z,88
2023-02-23T22:31:59.032Z,88
2023-02-23T22:35:52.887Z,87
2023-02-23T22:37:51.047Z,87
2023-02-23T22:39:53.206Z,87
2023-02-23T22:41:52.264Z,87
2023-02-23T22:43:49.345Z,88
2023-02-23T22:47:51.213Z,88
2023-02-23T22:49:52.281Z,88
2023-02-23T22:51:53.307Z,88
2023-02-23T22:53:49.501Z,88
2023-02-23T22:55:51.142Z,89
2023-02-23T22:57:53.184Z,88
2023-02-23T22:59:52.638Z,88
2023-02-23T23:01:51.673Z,88
2023-02-23T23:03:52.672Z,89
2023-02-23T23:05:50.335Z,88
2023-02-23T23:07:52.578Z,88
2023-02-23T23:11:50.391Z,89
2023-02-23T23:13:52.736Z,89
2023-02-23T23:15:55.202Z,89
2023-02-23T23:17:51.699Z,89
2023-02-23T23:19:49.966Z,89
2023-02-23T23:23:51.744Z,89
2023-02-23T23:25:52.598Z,89
2023-02-23T23:29:47.912Z,89
2023-02-23T23:31:52.533Z,89
2023-02-23T23:33:53.722Z,89
2023-02-23T23:35:52.651Z,89
2023-02-23T23:37:50.316Z,89
2023-02-23T23:41:49.462Z,89
2023-02-23T23:43:49.414Z,89
2023-02-23T23:47:50.645Z,89
2023-02-23T23:49:52.549Z,89
2023-02-23T23:53:50.318Z,89
2023-02-23T23:55:52.745Z,89
2023-02-23T23:57:53.452Z,89
2023-02-23T23:59:51.291Z,89
